sensor_id;sensor_type;location;lat;lon;timestamp;P1;durP1;ratioP1;P2;durP2;ratioP2
12593;SDS011;6362;50.208;9.182;2023-08-06T00:01:48;2.92;;;2.60;;
12593;SDS011;6362;50.208;9.182;2023-08-06T00:04:14;2.95;;;2.50;;
12593;SDS011;6362;50.208;9.182;2023-08-06T00:06:40;2.50;;;2.30;;
12593;SDS011;6362;50.208;9.182;2023-08-06T00:09:05;2.33;;;2.13;;
12593;SDS011;6362;50.208;9.182;2023-08-06T00:11:31;2.60;;;2.40;;
12593;SDS011;6362;50.208;9.182;2023-08-06T00:13:56;3.15;;;2.17;;
12593;SDS011;6362;50.208;9.182;2023-08-06T00:16:22;2.35;;;2.10;;
12593;SDS011;6362;50.208;9.182;2023-08-06T00:18:47;3.03;;;2.72;;
12593;SDS011;6362;50.208;9.182;2023-08-06T00:21:13;4.85;;;2.80;;
12593;SDS011;6362;50.208;9.182;2023-08-06T00:23:39;4.10;;;3.15;;
12593;SDS011;6362;50.208;9.182;2023-08-06T00:26:05;2.90;;;2.50;;
12593;SDS011;6362;50.208;9.182;2023-08-06T00:28:30;4.70;;;2.53;;
12593;SDS011;6362;50.208;9.182;2023-08-06T00:30:56;4.60;;;2.30;;
12593;SDS011;6362;50.208;9.182;2023-08-06T00:33:24;4.22;;;2.33;;
12593;SDS011;6362;50.208;9.182;2023-08-06T00:35:50;2.95;;;2.60;;
12593;SDS011;6362;50.208;9.182;2023-08-06T00:38:16;4.75;;;2.40;;
12593;SDS011;6362;50.208;9.182;2023-08-06T00:40:41;2.75;;;2.47;;
12593;SDS011;6362;50.208;9.182;2023-08-06T00:43:07;3.83;;;2.70;;
12593;SDS011;6362;50.208;9.182;2023-08-06T00:45:35;2.88;;;2.55;;
12593;SDS011;6362;50.208;9.182;2023-08-06T00:48:02;7.57;;;2.50;;
12593;SDS011;6362;50.208;9.182;2023-08-06T00:50:30;3.20;;;2.33;;
12593;SDS011;6362;50.208;9.182;2023-08-06T00:52:55;4.40;;;2.65;;
12593;SDS011;6362;50.208;9.182;2023-08-06T00:55:21;3.28;;;2.80;;
12593;SDS011;6362;50.208;9.182;2023-08-06T00:57:47;4.72;;;2.67;;
12593;SDS011;6362;50.208;9.182;2023-08-06T01:00:13;4.63;;;2.55;;
12593;SDS011;6362;50.208;9.182;2023-08-06T01:02:38;3.05;;;2.70;;
12593;SDS011;6362;50.208;9.182;2023-08-06T01:05:04;3.42;;;2.72;;
12593;SDS011;6362;50.208;9.182;2023-08-06T01:16:11;6.75;;;2.80;;
12593;SDS011;6362;50.208;9.182;2023-08-06T01:18:42;4.05;;;3.10;;
12593;SDS011;6362;50.208;9.182;2023-08-06T01:21:11;2.58;;;2.30;;
12593;SDS011;6362;50.208;9.182;2023-08-06T01:23:39;3.30;;;2.53;;
12593;SDS011;6362;50.208;9.182;2023-08-06T01:26:10;3.00;;;2.70;;
12593;SDS011;6362;50.208;9.182;2023-08-06T01:34:07;4.25;;;2.75;;
12593;SDS011;6362;50.208;9.182;2023-08-06T01:36:38;3.72;;;2.83;;
12593;SDS011;6362;50.208;9.182;2023-08-06T01:39:04;3.70;;;2.85;;
12593;SDS011;6362;50.208;9.182;2023-08-06T01:41:30;3.90;;;2.88;;
12593;SDS011;6362;50.208;9.182;2023-08-06T01:43:55;3.63;;;2.40;;
12593;SDS011;6362;50.208;9.182;2023-08-06T01:46:21;3.65;;;3.17;;
12593;SDS011;6362;50.208;9.182;2023-08-06T01:48:46;3.40;;;2.72;;
12593;SDS011;6362;50.208;9.182;2023-08-06T01:51:11;4.88;;;2.70;;
12593;SDS011;6362;50.208;9.182;2023-08-06T01:53:37;4.45;;;3.08;;
12593;SDS011;6362;50.208;9.182;2023-08-06T01:56:02;4.03;;;2.58;;
12593;SDS011;6362;50.208;9.182;2023-08-06T01:58:28;2.70;;;2.50;;
12593;SDS011;6362;50.208;9.182;2023-08-06T02:00:53;2.95;;;2.55;;
12593;SDS011;6362;50.208;9.182;2023-08-06T02:03:19;4.05;;;3.00;;
12593;SDS011;6362;50.208;9.182;2023-08-06T02:05:44;5.05;;;2.90;;
12593;SDS011;6362;50.208;9.182;2023-08-06T02:08:10;3.55;;;3.08;;
12593;SDS011;6362;50.208;9.182;2023-08-06T02:10:36;6.57;;;2.78;;
12593;SDS011;6362;50.208;9.182;2023-08-06T02:13:01;4.63;;;3.03;;
12593;SDS011;6362;50.208;9.182;2023-08-06T02:15:26;3.50;;;2.60;;
12593;SDS011;6362;50.208;9.182;2023-08-06T02:17:52;3.47;;;2.90;;
12593;SDS011;6362;50.208;9.182;2023-08-06T02:20:17;3.92;;;2.63;;
12593;SDS011;6362;50.208;9.182;2023-08-06T02:22:43;5.20;;;2.70;;
12593;SDS011;6362;50.208;9.182;2023-08-06T02:25:08;6.13;;;2.70;;
12593;SDS011;6362;50.208;9.182;2023-08-06T02:27:34;4.45;;;2.88;;
12593;SDS011;6362;50.208;9.182;2023-08-06T02:29:59;3.20;;;2.70;;
12593;SDS011;6362;50.208;9.182;2023-08-06T02:32:25;6.82;;;3.38;;
12593;SDS011;6362;50.208;9.182;2023-08-06T02:34:50;6.10;;;2.90;;
12593;SDS011;6362;50.208;9.182;2023-08-06T02:37:16;4.88;;;2.42;;
12593;SDS011;6362;50.208;9.182;2023-08-06T02:39:41;4.53;;;3.00;;
12593;SDS011;6362;50.208;9.182;2023-08-06T02:42:08;4.03;;;2.83;;
12593;SDS011;6362;50.208;9.182;2023-08-06T02:44:34;4.60;;;2.60;;
12593;SDS011;6362;50.208;9.182;2023-08-06T02:47:00;3.63;;;2.78;;
12593;SDS011;6362;50.208;9.182;2023-08-06T02:49:26;4.63;;;3.10;;
12593;SDS011;6362;50.208;9.182;2023-08-06T02:51:51;3.47;;;2.50;;
12593;SDS011;6362;50.208;9.182;2023-08-06T02:54:17;5.75;;;2.50;;
12593;SDS011;6362;50.208;9.182;2023-08-06T02:56:44;10.05;;;3.50;;
12593;SDS011;6362;50.208;9.182;2023-08-06T02:59:10;4.03;;;2.45;;
12593;SDS011;6362;50.208;9.182;2023-08-06T03:01:36;6.25;;;2.60;;
12593;SDS011;6362;50.208;9.182;2023-08-06T03:04:02;2.90;;;2.40;;
12593;SDS011;6362;50.208;9.182;2023-08-06T03:06:28;3.85;;;2.55;;
12593;SDS011;6362;50.208;9.182;2023-08-06T03:08:53;7.13;;;2.42;;
12593;SDS011;6362;50.208;9.182;2023-08-06T03:11:18;4.85;;;2.47;;
12593;SDS011;6362;50.208;9.182;2023-08-06T03:13:44;3.20;;;2.08;;
12593;SDS011;6362;50.208;9.182;2023-08-06T03:16:09;5.70;;;2.53;;
12593;SDS011;6362;50.208;9.182;2023-08-06T03:18:35;2.45;;;2.15;;
12593;SDS011;6362;50.208;9.182;2023-08-06T03:21:00;3.33;;;2.45;;
12593;SDS011;6362;50.208;9.182;2023-08-06T03:23:25;2.60;;;2.35;;
12593;SDS011;6362;50.208;9.182;2023-08-06T03:25:51;3.35;;;2.50;;
12593;SDS011;6362;50.208;9.182;2023-08-06T03:28:16;7.05;;;2.40;;
12593;SDS011;6362;50.208;9.182;2023-08-06T03:30:42;6.22;;;2.58;;
12593;SDS011;6362;50.208;9.182;2023-08-06T03:33:07;2.42;;;2.10;;
12593;SDS011;6362;50.208;9.182;2023-08-06T03:35:33;5.57;;;2.38;;
12593;SDS011;6362;50.208;9.182;2023-08-06T03:37:58;5.97;;;2.50;;
12593;SDS011;6362;50.208;9.182;2023-08-06T03:40:24;3.67;;;2.40;;
12593;SDS011;6362;50.208;9.182;2023-08-06T03:42:49;3.10;;;2.28;;
12593;SDS011;6362;50.208;9.182;2023-08-06T03:45:14;2.60;;;2.25;;
12593;SDS011;6362;50.208;9.182;2023-08-06T03:47:40;3.22;;;2.53;;
12593;SDS011;6362;50.208;9.182;2023-08-06T03:50:06;4.32;;;2.15;;
12593;SDS011;6362;50.208;9.182;2023-08-06T03:52:31;4.63;;;2.08;;
12593;SDS011;6362;50.208;9.182;2023-08-06T03:54:57;3.38;;;2.28;;
12593;SDS011;6362;50.208;9.182;2023-08-06T03:57:22;3.25;;;2.22;;
12593;SDS011;6362;50.208;9.182;2023-08-06T03:59:47;2.97;;;2.40;;
12593;SDS011;6362;50.208;9.182;2023-08-06T04:02:13;3.05;;;2.42;;
12593;SDS011;6362;50.208;9.182;2023-08-06T04:04:38;5.00;;;2.40;;
12593;SDS011;6362;50.208;9.182;2023-08-06T04:07:04;4.68;;;2.40;;
12593;SDS011;6362;50.208;9.182;2023-08-06T04:09:29;6.32;;;2.35;;
12593;SDS011;6362;50.208;9.182;2023-08-06T04:11:55;3.20;;;2.35;;
12593;SDS011;6362;50.208;9.182;2023-08-06T04:14:20;3.17;;;2.22;;
12593;SDS011;6362;50.208;9.182;2023-08-06T04:16:46;5.68;;;2.08;;
12593;SDS011;6362;50.208;9.182;2023-08-06T04:19:11;3.95;;;2.20;;
12593;SDS011;6362;50.208;9.182;2023-08-06T04:21:37;2.42;;;2.10;;
12593;SDS011;6362;50.208;9.182;2023-08-06T04:24:02;3.95;;;1.90;;
12593;SDS011;6362;50.208;9.182;2023-08-06T04:26:28;5.15;;;2.30;;
12593;SDS011;6362;50.208;9.182;2023-08-06T04:28:54;5.22;;;2.50;;
12593;SDS011;6362;50.208;9.182;2023-08-06T04:31:19;3.30;;;2.08;;
12593;SDS011;6362;50.208;9.182;2023-08-06T04:33:44;5.78;;;2.38;;
12593;SDS011;6362;50.208;9.182;2023-08-06T04:36:11;3.00;;;2.53;;
12593;SDS011;6362;50.208;9.182;2023-08-06T04:38:37;5.07;;;2.17;;
12593;SDS011;6362;50.208;9.182;2023-08-06T04:41:03;4.03;;;2.40;;
12593;SDS011;6362;50.208;9.182;2023-08-06T04:43:29;2.60;;;2.00;;
12593;SDS011;6362;50.208;9.182;2023-08-06T04:45:55;2.00;;;1.80;;
12593;SDS011;6362;50.208;9.182;2023-08-06T04:48:21;2.78;;;1.67;;
12593;SDS011;6362;50.208;9.182;2023-08-06T04:50:48;2.78;;;1.80;;
12593;SDS011;6362;50.208;9.182;2023-08-06T04:53:14;3.22;;;2.08;;
12593;SDS011;6362;50.208;9.182;2023-08-06T04:55:40;3.70;;;2.10;;
12593;SDS011;6362;50.208;9.182;2023-08-06T04:58:06;3.42;;;1.95;;
12593;SDS011;6362;50.208;9.182;2023-08-06T05:00:34;3.05;;;2.05;;
12593;SDS011;6362;50.208;9.182;2023-08-06T05:02:59;4.75;;;1.73;;
12593;SDS011;6362;50.208;9.182;2023-08-06T05:05:26;2.45;;;1.73;;
12593;SDS011;6362;50.208;9.182;2023-08-06T05:07:53;2.80;;;2.25;;
12593;SDS011;6362;50.208;9.182;2023-08-06T05:10:19;3.95;;;2.35;;
12593;SDS011;6362;50.208;9.182;2023-08-06T05:12:45;6.10;;;2.47;;
12593;SDS011;6362;50.208;9.182;2023-08-06T05:15:10;2.78;;;2.10;;
12593;SDS011;6362;50.208;9.182;2023-08-06T05:17:36;3.70;;;2.10;;
12593;SDS011;6362;50.208;9.182;2023-08-06T05:20:01;4.20;;;2.13;;
12593;SDS011;6362;50.208;9.182;2023-08-06T05:22:27;3.97;;;2.38;;
12593;SDS011;6362;50.208;9.182;2023-08-06T05:24:52;3.38;;;1.95;;
12593;SDS011;6362;50.208;9.182;2023-08-06T05:27:17;2.97;;;1.77;;
12593;SDS011;6362;50.208;9.182;2023-08-06T05:29:46;6.82;;;2.53;;
12593;SDS011;6362;50.208;9.182;2023-08-06T05:32:12;3.05;;;1.60;;
12593;SDS011;6362;50.208;9.182;2023-08-06T05:34:38;2.90;;;1.90;;
12593;SDS011;6362;50.208;9.182;2023-08-06T05:37:03;3.78;;;2.10;;
12593;SDS011;6362;50.208;9.182;2023-08-06T05:39:29;2.55;;;1.50;;
12593;SDS011;6362;50.208;9.182;2023-08-06T05:41:54;5.45;;;1.48;;
12593;SDS011;6362;50.208;9.182;2023-08-06T05:44:20;3.45;;;1.50;;
12593;SDS011;6362;50.208;9.182;2023-08-06T05:46:46;3.70;;;1.40;;
12593;SDS011;6362;50.208;9.182;2023-08-06T05:49:12;1.75;;;1.40;;
12593;SDS011;6362;50.208;9.182;2023-08-06T05:51:39;2.50;;;1.15;;
12593;SDS011;6362;50.208;9.182;2023-08-06T05:54:04;3.15;;;1.25;;
12593;SDS011;6362;50.208;9.182;2023-08-06T05:56:30;2.10;;;1.30;;
12593;SDS011;6362;50.208;9.182;2023-08-06T05:58:55;6.45;;;1.83;;
12593;SDS011;6362;50.208;9.182;2023-08-06T06:01:20;2.80;;;1.38;;
12593;SDS011;6362;50.208;9.182;2023-08-06T06:03:46;3.58;;;1.40;;
12593;SDS011;6362;50.208;9.182;2023-08-06T06:06:12;2.10;;;1.13;;
12593;SDS011;6362;50.208;9.182;2023-08-06T06:08:37;4.03;;;1.67;;
12593;SDS011;6362;50.208;9.182;2023-08-06T06:11:03;2.35;;;1.30;;
12593;SDS011;6362;50.208;9.182;2023-08-06T06:13:28;2.53;;;1.33;;
12593;SDS011;6362;50.208;9.182;2023-08-06T06:15:54;2.97;;;1.40;;
12593;SDS011;6362;50.208;9.182;2023-08-06T06:18:21;2.55;;;1.25;;
12593;SDS011;6362;50.208;9.182;2023-08-06T06:20:46;2.63;;;1.50;;
12593;SDS011;6362;50.208;9.182;2023-08-06T06:23:12;3.90;;;1.70;;
12593;SDS011;6362;50.208;9.182;2023-08-06T06:25:41;2.80;;;1.45;;
12593;SDS011;6362;50.208;9.182;2023-08-06T06:28:08;2.83;;;1.58;;
12593;SDS011;6362;50.208;9.182;2023-08-06T06:30:33;2.10;;;1.45;;
12593;SDS011;6362;50.208;9.182;2023-08-06T06:32:58;5.30;;;0.98;;
12593;SDS011;6362;50.208;9.182;2023-08-06T06:35:24;1.60;;;1.05;;
12593;SDS011;6362;50.208;9.182;2023-08-06T06:37:49;2.13;;;1.17;;
12593;SDS011;6362;50.208;9.182;2023-08-06T06:40:15;3.28;;;1.98;;
12593;SDS011;6362;50.208;9.182;2023-08-06T06:42:40;1.77;;;1.10;;
12593;SDS011;6362;50.208;9.182;2023-08-06T06:45:06;3.45;;;1.55;;
12593;SDS011;6362;50.208;9.182;2023-08-06T06:47:32;4.05;;;1.63;;
12593;SDS011;6362;50.208;9.182;2023-08-06T06:49:57;4.72;;;1.77;;
12593;SDS011;6362;50.208;9.182;2023-08-06T06:52:23;4.45;;;1.83;;
12593;SDS011;6362;50.208;9.182;2023-08-06T06:54:48;1.55;;;0.90;;
12593;SDS011;6362;50.208;9.182;2023-08-06T06:57:14;1.75;;;0.88;;
12593;SDS011;6362;50.208;9.182;2023-08-06T06:59:39;3.15;;;1.17;;
12593;SDS011;6362;50.208;9.182;2023-08-06T07:02:05;1.77;;;0.88;;
12593;SDS011;6362;50.208;9.182;2023-08-06T07:04:30;2.25;;;0.95;;
12593;SDS011;6362;50.208;9.182;2023-08-06T07:06:56;1.55;;;1.02;;
12593;SDS011;6362;50.208;9.182;2023-08-06T07:09:21;2.35;;;0.82;;
12593;SDS011;6362;50.208;9.182;2023-08-06T07:11:47;1.15;;;0.77;;
12593;SDS011;6362;50.208;9.182;2023-08-06T07:14:12;1.60;;;1.00;;
12593;SDS011;6362;50.208;9.182;2023-08-06T07:16:39;2.08;;;1.00;;
12593;SDS011;6362;50.208;9.182;2023-08-06T07:19:04;2.08;;;1.20;;
12593;SDS011;6362;50.208;9.182;2023-08-06T07:21:30;2.70;;;1.08;;
12593;SDS011;6362;50.208;9.182;2023-08-06T07:23:56;1.05;;;0.60;;
12593;SDS011;6362;50.208;9.182;2023-08-06T07:26:22;0.90;;;0.80;;
12593;SDS011;6362;50.208;9.182;2023-08-06T07:28:47;2.55;;;0.88;;
12593;SDS011;6362;50.208;9.182;2023-08-06T07:31:13;2.88;;;0.90;;
12593;SDS011;6362;50.208;9.182;2023-08-06T07:33:38;1.83;;;1.00;;
12593;SDS011;6362;50.208;9.182;2023-08-06T07:36:13;5.68;;;1.60;;
12593;SDS011;6362;50.208;9.182;2023-08-06T07:38:39;1.38;;;0.80;;
12593;SDS011;6362;50.208;9.182;2023-08-06T07:41:05;3.90;;;0.80;;
12593;SDS011;6362;50.208;9.182;2023-08-06T07:43:30;0.93;;;0.60;;
12593;SDS011;6362;50.208;9.182;2023-08-06T07:45:59;0.85;;;0.57;;
12593;SDS011;6362;50.208;9.182;2023-08-06T07:48:25;0.80;;;0.73;;
12593;SDS011;6362;50.208;9.182;2023-08-06T07:50:54;2.47;;;0.80;;
12593;SDS011;6362;50.208;9.182;2023-08-06T07:53:21;1.15;;;0.60;;
12593;SDS011;6362;50.208;9.182;2023-08-06T07:55:50;1.25;;;0.80;;
12593;SDS011;6362;50.208;9.182;2023-08-06T07:58:16;1.52;;;0.70;;
12593;SDS011;6362;50.208;9.182;2023-08-06T08:00:42;1.13;;;0.80;;
12593;SDS011;6362;50.208;9.182;2023-08-06T08:03:10;1.25;;;0.88;;
12593;SDS011;6362;50.208;9.182;2023-08-06T08:05:37;0.57;;;0.50;;
12593;SDS011;6362;50.208;9.182;2023-08-06T08:08:02;0.45;;;0.40;;
12593;SDS011;6362;50.208;9.182;2023-08-06T08:10:28;0.65;;;0.65;;
12593;SDS011;6362;50.208;9.182;2023-08-06T08:12:53;1.60;;;0.65;;
12593;SDS011;6362;50.208;9.182;2023-08-06T08:15:18;1.15;;;0.55;;
12593;SDS011;6362;50.208;9.182;2023-08-06T08:17:44;0.75;;;0.68;;
12593;SDS011;6362;50.208;9.182;2023-08-06T08:20:09;0.68;;;0.50;;
12593;SDS011;6362;50.208;9.182;2023-08-06T08:22:35;0.80;;;0.70;;
12593;SDS011;6362;50.208;9.182;2023-08-06T08:25:01;1.20;;;0.57;;
12593;SDS011;6362;50.208;9.182;2023-08-06T08:27:26;1.38;;;0.60;;
12593;SDS011;6362;50.208;9.182;2023-08-06T08:29:51;1.65;;;0.65;;
12593;SDS011;6362;50.208;9.182;2023-08-06T08:32:17;1.42;;;0.70;;
12593;SDS011;6362;50.208;9.182;2023-08-06T08:34:42;0.77;;;0.60;;
12593;SDS011;6362;50.208;9.182;2023-08-06T08:37:09;2.80;;;0.60;;
12593;SDS011;6362;50.208;9.182;2023-08-06T08:39:34;0.85;;;0.40;;
12593;SDS011;6362;50.208;9.182;2023-08-06T08:42:00;1.48;;;0.50;;
12593;SDS011;6362;50.208;9.182;2023-08-06T08:44:27;1.02;;;0.45;;
12593;SDS011;6362;50.208;9.182;2023-08-06T08:46:54;0.95;;;0.40;;
12593;SDS011;6362;50.208;9.182;2023-08-06T08:49:21;0.40;;;0.40;;
12593;SDS011;6362;50.208;9.182;2023-08-06T08:51:48;1.90;;;0.50;;
12593;SDS011;6362;50.208;9.182;2023-08-06T08:54:16;1.52;;;0.57;;
12593;SDS011;6362;50.208;9.182;2023-08-06T08:56:43;1.48;;;0.50;;
12593;SDS011;6362;50.208;9.182;2023-08-06T08:59:09;0.90;;;0.45;;
12593;SDS011;6362;50.208;9.182;2023-08-06T09:01:35;1.05;;;0.75;;
12593;SDS011;6362;50.208;9.182;2023-08-06T09:04:02;1.40;;;0.75;;
12593;SDS011;6362;50.208;9.182;2023-08-06T09:06:28;1.05;;;0.65;;
12593;SDS011;6362;50.208;9.182;2023-08-06T09:09:08;1.00;;;0.38;;
12593;SDS011;6362;50.208;9.182;2023-08-06T09:11:39;0.73;;;0.60;;
12593;SDS011;6362;50.208;9.182;2023-08-06T09:14:08;0.70;;;0.50;;
12593;SDS011;6362;50.208;9.182;2023-08-06T09:16:37;5.25;;;0.50;;
12593;SDS011;6362;50.208;9.182;2023-08-06T09:21:41;0.98;;;0.70;;
12593;SDS011;6362;50.208;9.182;2023-08-06T09:24:08;0.57;;;0.50;;
12593;SDS011;6362;50.208;9.182;2023-08-06T09:26:34;0.55;;;0.40;;
12593;SDS011;6362;50.208;9.182;2023-08-06T09:29:01;0.75;;;0.50;;
12593;SDS011;6362;50.208;9.182;2023-08-06T09:31:32;1.05;;;0.57;;
12593;SDS011;6362;50.208;9.182;2023-08-06T09:34:19;0.55;;;0.55;;
12593;SDS011;6362;50.208;9.182;2023-08-06T09:36:48;1.48;;;0.60;;
12593;SDS011;6362;50.208;9.182;2023-08-06T09:39:16;1.67;;;0.63;;
12593;SDS011;6362;50.208;9.182;2023-08-06T09:41:43;2.42;;;0.57;;
12593;SDS011;6362;50.208;9.182;2023-08-06T09:44:15;1.48;;;0.65;;
12593;SDS011;6362;50.208;9.182;2023-08-06T09:47:00;3.25;;;0.55;;
12593;SDS011;6362;50.208;9.182;2023-08-06T09:49:28;0.40;;;0.38;;
12593;SDS011;6362;50.208;9.182;2023-08-06T09:52:09;1.00;;;0.50;;
12593;SDS011;6362;50.208;9.182;2023-08-06T09:54:36;1.27;;;0.47;;
12593;SDS011;6362;50.208;9.182;2023-08-06T09:57:02;0.55;;;0.55;;
12593;SDS011;6362;50.208;9.182;2023-08-06T09:59:28;0.43;;;0.43;;
12593;SDS011;6362;50.208;9.182;2023-08-06T10:01:55;0.63;;;0.52;;
12593;SDS011;6362;50.208;9.182;2023-08-06T10:04:21;1.00;;;0.57;;
12593;SDS011;6362;50.208;9.182;2023-08-06T10:06:48;0.55;;;0.50;;
12593;SDS011;6362;50.208;9.182;2023-08-06T10:09:14;0.68;;;0.50;;
12593;SDS011;6362;50.208;9.182;2023-08-06T10:11:39;1.52;;;0.52;;
12593;SDS011;6362;50.208;9.182;2023-08-06T10:14:08;1.30;;;0.60;;
12593;SDS011;6362;50.208;9.182;2023-08-06T10:16:37;1.10;;;0.32;;
12593;SDS011;6362;50.208;9.182;2023-08-06T10:19:05;1.48;;;0.55;;
12593;SDS011;6362;50.208;9.182;2023-08-06T10:21:34;0.57;;;0.40;;
12593;SDS011;6362;50.208;9.182;2023-08-06T10:23:59;0.35;;;0.30;;
12593;SDS011;6362;50.208;9.182;2023-08-06T10:26:29;1.90;;;0.52;;
12593;SDS011;6362;50.208;9.182;2023-08-06T10:28:55;1.52;;;0.60;;
12593;SDS011;6362;50.208;9.182;2023-08-06T10:34:20;2.30;;;0.50;;
12593;SDS011;6362;50.208;9.182;2023-08-06T10:36:45;1.17;;;0.50;;
12593;SDS011;6362;50.208;9.182;2023-08-06T10:39:13;2.58;;;0.52;;
12593;SDS011;6362;50.208;9.182;2023-08-06T10:41:39;0.65;;;0.30;;
12593;SDS011;6362;50.208;9.182;2023-08-06T10:44:07;0.95;;;0.40;;
12593;SDS011;6362;50.208;9.182;2023-08-06T10:46:34;1.75;;;0.43;;
12593;SDS011;6362;50.208;9.182;2023-08-06T10:49:00;2.13;;;0.50;;
12593;SDS011;6362;50.208;9.182;2023-08-06T10:51:26;0.73;;;0.50;;
12593;SDS011;6362;50.208;9.182;2023-08-06T10:53:52;0.98;;;0.40;;
12593;SDS011;6362;50.208;9.182;2023-08-06T10:56:19;0.77;;;0.40;;
12593;SDS011;6362;50.208;9.182;2023-08-06T10:58:49;0.47;;;0.40;;
12593;SDS011;6362;50.208;9.182;2023-08-06T11:01:15;2.83;;;0.50;;
12593;SDS011;6362;50.208;9.182;2023-08-06T11:03:41;0.85;;;0.50;;
12593;SDS011;6362;50.208;9.182;2023-08-06T11:06:08;1.73;;;0.40;;
12593;SDS011;6362;50.208;9.182;2023-08-06T11:08:35;2.10;;;0.20;;
12593;SDS011;6362;50.208;9.182;2023-08-06T11:11:12;0.70;;;0.38;;
12593;SDS011;6362;50.208;9.182;2023-08-06T11:13:45;0.47;;;0.25;;
12593;SDS011;6362;50.208;9.182;2023-08-06T11:16:19;3.58;;;0.50;;
12593;SDS011;6362;50.208;9.182;2023-08-06T11:18:51;0.50;;;0.40;;
12593;SDS011;6362;50.208;9.182;2023-08-06T11:21:22;0.60;;;0.45;;
12593;SDS011;6362;50.208;9.182;2023-08-06T11:23:49;0.80;;;0.43;;
12593;SDS011;6362;50.208;9.182;2023-08-06T11:26:19;0.47;;;0.40;;
12593;SDS011;6362;50.208;9.182;2023-08-06T11:28:45;1.52;;;0.60;;
12593;SDS011;6362;50.208;9.182;2023-08-06T11:31:18;4.55;;;0.82;;
12593;SDS011;6362;50.208;9.182;2023-08-06T11:33:47;1.05;;;0.50;;
12593;SDS011;6362;50.208;9.182;2023-08-06T11:36:15;2.58;;;0.47;;
12593;SDS011;6362;50.208;9.182;2023-08-06T11:38:40;1.08;;;0.40;;
12593;SDS011;6362;50.208;9.182;2023-08-06T11:41:06;0.30;;;0.30;;
12593;SDS011;6362;50.208;9.182;2023-08-06T11:43:32;1.20;;;0.55;;
12593;SDS011;6362;50.208;9.182;2023-08-06T11:45:58;1.85;;;0.40;;
12593;SDS011;6362;50.208;9.182;2023-08-06T11:48:25;2.00;;;0.65;;
12593;SDS011;6362;50.208;9.182;2023-08-06T11:50:53;0.75;;;0.38;;
12593;SDS011;6362;50.208;9.182;2023-08-06T11:53:20;1.10;;;0.80;;
12593;SDS011;6362;50.208;9.182;2023-08-06T11:55:45;3.08;;;0.50;;
12593;SDS011;6362;50.208;9.182;2023-08-06T11:58:11;2.38;;;1.00;;
12593;SDS011;6362;50.208;9.182;2023-08-06T12:00:37;1.75;;;0.52;;
12593;SDS011;6362;50.208;9.182;2023-08-06T12:03:04;2.25;;;0.50;;
12593;SDS011;6362;50.208;9.182;2023-08-06T12:05:30;0.93;;;0.50;;
12593;SDS011;6362;50.208;9.182;2023-08-06T12:07:58;1.67;;;0.65;;
12593;SDS011;6362;50.208;9.182;2023-08-06T12:10:26;1.90;;;0.50;;
12593;SDS011;6362;50.208;9.182;2023-08-06T12:12:53;0.63;;;0.47;;
12593;SDS011;6362;50.208;9.182;2023-08-06T12:15:19;0.40;;;0.30;;
12593;SDS011;6362;50.208;9.182;2023-08-06T12:17:45;1.88;;;0.60;;
12593;SDS011;6362;50.208;9.182;2023-08-06T12:20:10;0.68;;;0.50;;
12593;SDS011;6362;50.208;9.182;2023-08-06T12:22:38;0.93;;;0.40;;
12593;SDS011;6362;50.208;9.182;2023-08-06T12:25:08;0.50;;;0.40;;
12593;SDS011;6362;50.208;9.182;2023-08-06T12:27:40;1.42;;;0.68;;
12593;SDS011;6362;50.208;9.182;2023-08-06T12:30:07;0.40;;;0.20;;
12593;SDS011;6362;50.208;9.182;2023-08-06T12:32:33;0.45;;;0.40;;
12593;SDS011;6362;50.208;9.182;2023-08-06T12:35:00;0.70;;;0.50;;
12593;SDS011;6362;50.208;9.182;2023-08-06T12:37:26;0.30;;;0.30;;
12593;SDS011;6362;50.208;9.182;2023-08-06T12:39:51;0.15;;;0.15;;
12593;SDS011;6362;50.208;9.182;2023-08-06T12:42:17;0.30;;;0.30;;
12593;SDS011;6362;50.208;9.182;2023-08-06T12:44:42;0.28;;;0.20;;
12593;SDS011;6362;50.208;9.182;2023-08-06T12:47:08;1.27;;;0.22;;
12593;SDS011;6362;50.208;9.182;2023-08-06T12:49:33;0.88;;;0.20;;
12593;SDS011;6362;50.208;9.182;2023-08-06T12:51:59;1.85;;;0.25;;
12593;SDS011;6362;50.208;9.182;2023-08-06T12:54:25;3.15;;;0.20;;
12593;SDS011;6362;50.208;9.182;2023-08-06T12:56:51;0.43;;;0.20;;
12593;SDS011;6362;50.208;9.182;2023-08-06T12:59:17;0.40;;;0.20;;
12593;SDS011;6362;50.208;9.182;2023-08-06T13:01:43;1.08;;;0.40;;
12593;SDS011;6362;50.208;9.182;2023-08-06T13:04:09;0.57;;;0.13;;
12593;SDS011;6362;50.208;9.182;2023-08-06T13:06:35;0.38;;;0.20;;
12593;SDS011;6362;50.208;9.182;2023-08-06T13:09:05;0.40;;;0.20;;
12593;SDS011;6362;50.208;9.182;2023-08-06T13:11:31;2.17;;;0.50;;
12593;SDS011;6362;50.208;9.182;2023-08-06T13:14:04;1.52;;;0.40;;
12593;SDS011;6362;50.208;9.182;2023-08-06T13:16:31;1.80;;;0.30;;
12593;SDS011;6362;50.208;9.182;2023-08-06T13:18:57;0.65;;;0.22;;
12593;SDS011;6362;50.208;9.182;2023-08-06T13:21:23;0.30;;;0.13;;
12593;SDS011;6362;50.208;9.182;2023-08-06T13:23:48;0.68;;;0.20;;
12593;SDS011;6362;50.208;9.182;2023-08-06T13:26:14;0.60;;;0.38;;
12593;SDS011;6362;50.208;9.182;2023-08-06T13:28:41;0.40;;;0.30;;
12593;SDS011;6362;50.208;9.182;2023-08-06T13:31:06;0.38;;;0.28;;
12593;SDS011;6362;50.208;9.182;2023-08-06T13:33:32;0.47;;;0.30;;
12593;SDS011;6362;50.208;9.182;2023-08-06T13:35:57;2.72;;;0.30;;
12593;SDS011;6362;50.208;9.182;2023-08-06T13:38:23;0.30;;;0.30;;
12593;SDS011;6362;50.208;9.182;2023-08-06T13:40:48;0.32;;;0.32;;
12593;SDS011;6362;50.208;9.182;2023-08-06T13:43:14;2.00;;;0.35;;
12593;SDS011;6362;50.208;9.182;2023-08-06T13:45:42;1.80;;;0.30;;
12593;SDS011;6362;50.208;9.182;2023-08-06T13:48:07;0.82;;;0.40;;
12593;SDS011;6362;50.208;9.182;2023-08-06T13:50:33;0.20;;;0.20;;
12593;SDS011;6362;50.208;9.182;2023-08-06T13:52:58;0.40;;;0.38;;
12593;SDS011;6362;50.208;9.182;2023-08-06T13:55:24;0.43;;;0.30;;
12593;SDS011;6362;50.208;9.182;2023-08-06T13:57:49;1.13;;;0.30;;
12593;SDS011;6362;50.208;9.182;2023-08-06T14:00:16;2.38;;;0.35;;
12593;SDS011;6362;50.208;9.182;2023-08-06T14:02:41;0.73;;;0.50;;
12593;SDS011;6362;50.208;9.182;2023-08-06T14:05:09;0.30;;;0.30;;
12593;SDS011;6362;50.208;9.182;2023-08-06T14:07:34;1.27;;;0.60;;
12593;SDS011;6362;50.208;9.182;2023-08-06T14:09:59;0.43;;;0.40;;
12593;SDS011;6362;50.208;9.182;2023-08-06T14:12:25;0.40;;;0.32;;
12593;SDS011;6362;50.208;9.182;2023-08-06T14:14:50;0.95;;;0.50;;
12593;SDS011;6362;50.208;9.182;2023-08-06T14:17:16;1.05;;;0.57;;
12593;SDS011;6362;50.208;9.182;2023-08-06T14:19:41;1.10;;;0.65;;
12593;SDS011;6362;50.208;9.182;2023-08-06T14:22:07;0.55;;;0.50;;
12593;SDS011;6362;50.208;9.182;2023-08-06T14:24:32;4.50;;;0.50;;
12593;SDS011;6362;50.208;9.182;2023-08-06T14:26:57;1.67;;;0.40;;
12593;SDS011;6362;50.208;9.182;2023-08-06T14:29:23;0.88;;;0.45;;
12593;SDS011;6362;50.208;9.182;2023-08-06T14:31:49;1.27;;;0.50;;
12593;SDS011;6362;50.208;9.182;2023-08-06T14:34:15;1.60;;;0.50;;
12593;SDS011;6362;50.208;9.182;2023-08-06T14:36:41;0.68;;;0.32;;
12593;SDS011;6362;50.208;9.182;2023-08-06T14:39:06;1.13;;;0.50;;
12593;SDS011;6362;50.208;9.182;2023-08-06T14:41:32;2.63;;;0.55;;
12593;SDS011;6362;50.208;9.182;2023-08-06T14:43:57;1.15;;;0.60;;
12593;SDS011;6362;50.208;9.182;2023-08-06T14:46:23;1.00;;;0.63;;
12593;SDS011;6362;50.208;9.182;2023-08-06T14:48:48;1.63;;;0.60;;
12593;SDS011;6362;50.208;9.182;2023-08-06T14:51:13;1.52;;;0.50;;
12593;SDS011;6362;50.208;9.182;2023-08-06T14:53:39;1.30;;;0.80;;
12593;SDS011;6362;50.208;9.182;2023-08-06T14:56:05;1.67;;;0.70;;
12593;SDS011;6362;50.208;9.182;2023-08-06T14:58:31;2.65;;;0.40;;
12593;SDS011;6362;50.208;9.182;2023-08-06T15:00:56;2.00;;;0.50;;
12593;SDS011;6362;50.208;9.182;2023-08-06T15:03:22;1.00;;;0.50;;
12593;SDS011;6362;50.208;9.182;2023-08-06T15:05:47;0.68;;;0.50;;
12593;SDS011;6362;50.208;9.182;2023-08-06T15:08:13;1.52;;;0.50;;
12593;SDS011;6362;50.208;9.182;2023-08-06T15:10:39;1.08;;;0.73;;
12593;SDS011;6362;50.208;9.182;2023-08-06T15:13:04;2.20;;;0.88;;
12593;SDS011;6362;50.208;9.182;2023-08-06T15:15:30;2.63;;;0.63;;